createdAt,value
2017-05-06T00:00:18.563Z,1019.3
2017-05-06T00:01:20.930Z,1019.2
2017-05-06T00:02:23.545Z,1019.2
2017-05-06T00:03:26.422Z,1019.2
2017-05-06T00:04:29.553Z,1019.2
2017-05-06T00:05:31.920Z,1019.2
2017-05-06T00:06:34.286Z,1019.3
2017-05-06T00:07:37.022Z,1019.3
2017-05-06T00:08:39.896Z,1019.2
2017-05-06T00:09:42.516Z,1019.2
2017-05-06T00:10:44.885Z,1019.2
2017-05-06T00:11:47.757Z,1019.2
2017-05-06T00:12:50.625Z,1019.2
2017-05-06T00:13:53.225Z,1019.2
2017-05-06T00:14:55.887Z,1019.2
2017-05-06T00:15:58.250Z,1019.2
2017-05-06T00:17:01.115Z,1019.1
2017-05-06T00:18:03.990Z,1019.2
2017-05-06T00:19:06.358Z,1019.1
2017-05-06T00:20:09.481Z,1019.1
2017-05-06T00:21:11.579Z,1019.1
2017-05-06T00:22:14.446Z,1019.1
2017-05-06T00:23:17.316Z,1019.1
2017-05-06T00:24:19.677Z,1019.1
2017-05-06T00:25:22.663Z,1019.1
2017-05-06T00:26:25.030Z,1019.1
2017-05-06T00:27:27.899Z,1019.1
2017-05-06T00:28:30.284Z,1019.1
2017-05-06T00:29:33.153Z,1019
2017-05-06T00:30:35.771Z,1019
2017-05-06T00:31:38.645Z,1019
2017-05-06T00:32:41.015Z,1019
2017-05-06T00:33:43.889Z,1019
2017-05-06T00:34:46.257Z,1019
2017-05-06T00:35:49.379Z,1019
2017-05-06T00:36:51.753Z,1019
2017-05-06T00:37:54.630Z,1019
2017-05-06T00:38:57.036Z,1019
2017-05-06T00:39:59.912Z,1019
2017-05-06T00:41:02.527Z,1019
2017-05-06T00:42:04.898Z,1018.9
2017-05-06T00:43:07.634Z,1018.9
2017-05-06T00:44:10.364Z,1018.9
2017-05-06T00:45:13.242Z,1018.9
2017-05-06T00:46:15.932Z,1018.9
2017-05-06T00:47:18.299Z,1018.9
2017-05-06T00:48:21.168Z,1018.9
2017-05-06T00:49:23.534Z,1018.9
2017-05-06T00:50:26.407Z,1018.8
2017-05-06T00:52:31.799Z,1018.8
2017-05-06T00:53:34.162Z,1018.9
2017-05-06T00:54:37.027Z,1018.8
2017-05-06T00:55:39.895Z,1018.9
2017-05-06T00:56:42.258Z,1018.8
2017-05-06T00:57:45.246Z,1018.8
2017-05-06T00:58:47.610Z,1018.8
2017-05-06T00:59:50.478Z,1018.8
2017-05-06T01:00:53.210Z,1018.8
2017-05-06T01:01:55.572Z,1018.7
2017-05-06T01:02:58.742Z,1018.8
2017-05-06T01:04:01.105Z,1018.7
2017-05-06T01:05:03.499Z,1018.7
2017-05-06T01:06:06.370Z,1018.7
2017-05-06T01:07:09.247Z,1018.7
2017-05-06T01:08:11.910Z,1018.8
2017-05-06T01:09:14.504Z,1018.7
2017-05-06T01:10:16.871Z,1018.7
2017-05-06T01:11:19.735Z,1018.7
2017-05-06T01:12:22.600Z,1018.7
2017-05-06T01:13:25.085Z,1018.7
2017-05-06T01:14:27.454Z,1018.7
2017-05-06T01:15:30.189Z,1018.7
2017-05-06T01:16:33.061Z,1018.7
2017-05-06T01:17:35.927Z,1018.6
2017-05-06T01:20:43.866Z,1018.6
2017-05-06T01:21:46.231Z,1018.5
2017-05-06T01:22:49.099Z,1018.6
2017-05-06T01:23:51.463Z,1018.5
2017-05-06T01:24:54.214Z,1018.6
2017-05-06T01:25:57.385Z,1018.6
2017-05-06T01:26:59.747Z,1018.5
2017-05-06T01:28:02.111Z,1018.5
2017-05-06T01:29:04.980Z,1018.5
2017-05-06T01:30:07.707Z,1018.5
2017-05-06T01:31:10.747Z,1018.4
2017-05-06T01:32:13.111Z,1018.5
2017-05-06T01:33:15.846Z,1018.5
2017-05-06T01:34:18.217Z,1018.5
2017-05-06T01:35:21.085Z,1018.4
2017-05-06T01:36:23.701Z,1018.4
2017-05-06T01:37:26.077Z,1018.4
2017-05-06T01:38:28.953Z,1018.4
2017-05-06T01:40:34.226Z,1018.4
2017-05-06T01:41:37.344Z,1018.3
2017-05-06T01:42:39.580Z,1018.3
2017-05-06T01:43:42.509Z,1018.3
2017-05-06T01:44:44.873Z,1018.3
2017-05-06T01:45:47.742Z,1018.3
2017-05-06T01:46:50.360Z,1018.4
2017-05-06T01:47:52.783Z,1018.4
2017-05-06T01:48:55.653Z,1018.3
2017-05-06T01:49:58.022Z,1018.3
2017-05-06T01:51:00.891Z,1018.3
2017-05-06T01:52:04.059Z,1018.3
2017-05-06T01:53:06.427Z,1018.3
2017-05-06T01:54:08.801Z,1018.3
2017-05-06T01:55:11.533Z,1018.3
2017-05-06T01:56:14.264Z,1018.3
2017-05-06T01:57:17.386Z,1018.2
2017-05-06T01:58:19.748Z,1018.2
2017-05-06T01:59:22.110Z,1018.2
2017-05-06T02:00:24.841Z,1018.2
2017-05-06T02:01:27.573Z,1018.2
2017-05-06T02:02:30.695Z,1018.3
2017-05-06T02:03:33.070Z,1018.2
2017-05-06T02:05:38.355Z,1018.2
2017-05-06T02:06:40.720Z,1018.1
2017-05-06T02:07:43.851Z,1018.2
2017-05-06T02:08:46.216Z,1018.2
2017-05-06T02:09:48.585Z,1018.2
2017-05-06T02:10:51.457Z,1018.2
2017-05-06T02:11:54.271Z,1018.2
2017-05-06T02:12:56.893Z,1018.2
2017-05-06T02:13:59.263Z,1018.2
2017-05-06T02:15:02.131Z,1018.2
2017-05-06T02:16:05.005Z,1018.2
2017-05-06T02:17:07.369Z,1018.1
2017-05-06T02:18:10.487Z,1018.2
2017-05-06T02:19:12.733Z,1018.1
2017-05-06T02:20:15.598Z,1018.1
2017-05-06T02:21:17.961Z,1018.1
2017-05-06T02:22:20.828Z,1018.1
2017-05-06T02:23:23.817Z,1018.2
2017-05-06T02:24:26.184Z,1018.2
2017-05-06T02:25:28.549Z,1018.2
2017-05-06T02:26:31.482Z,1018.2
2017-05-06T02:27:34.275Z,1018.2
2017-05-06T02:28:36.949Z,1018.2
2017-05-06T02:29:39.317Z,1018.1
2017-05-06T02:30:42.184Z,1018.1
2017-05-06T02:31:44.916Z,1018.2
2017-05-06T02:32:47.281Z,1018.1
2017-05-06T02:33:50.398Z,1018.2
2017-05-06T02:34:52.767Z,1018.2
2017-05-06T02:35:55.636Z,1018.2
2017-05-06T02:36:58.009Z,1018.2
2017-05-06T02:38:00.607Z,1018.2
2017-05-06T02:39:03.776Z,1018.2
2017-05-06T02:40:06.143Z,1018.1
2017-05-06T02:41:08.744Z,1018.1
2017-05-06T02:43:14.022Z,1018.1
2017-05-06T02:44:17.141Z,1018.1
2017-05-06T02:45:19.379Z,1018.1
2017-05-06T02:46:22.250Z,1018.1
2017-05-06T02:47:24.485Z,1018.1
2017-05-06T02:48:27.357Z,1018.1
2017-05-06T02:49:30.479Z,1018.1
2017-05-06T02:50:32.845Z,1018.1
2017-05-06T02:51:35.214Z,1018
2017-05-06T02:52:37.951Z,1018
2017-05-06T02:53:40.830Z,1018
2017-05-06T02:54:43.499Z,1018
2017-05-06T02:55:45.865Z,1018
2017-05-06T02:56:48.742Z,1018
2017-05-06T02:57:51.116Z,1018
2017-05-06T02:58:53.986Z,1018
2017-05-06T02:59:56.976Z,1018
2017-05-06T03:00:59.338Z,1018
2017-05-06T03:02:02.204Z,1018
2017-05-06T03:03:04.569Z,1018
2017-05-06T03:04:07.442Z,1018
2017-05-06T03:05:10.298Z,1018
2017-05-06T03:06:12.665Z,1018
2017-05-06T03:07:15.396Z,1017.9
2017-05-06T03:08:17.759Z,1017.9
2017-05-06T03:09:20.490Z,1017.9
2017-05-06T03:10:23.341Z,1018
2017-05-06T03:11:25.705Z,1018
2017-05-06T03:12:28.573Z,1018
2017-05-06T03:13:31.442Z,1018
2017-05-06T03:14:33.813Z,1018
2017-05-06T03:15:36.933Z,1017.9
2017-05-06T03:16:39.299Z,1017.9
2017-05-06T03:17:42.033Z,1018
2017-05-06T03:18:44.402Z,1017.9
2017-05-06T03:19:47.277Z,1017.9
2017-05-06T03:20:49.944Z,1018
2017-05-06T03:21:52.306Z,1018
2017-05-06T03:22:55.414Z,1018
2017-05-06T03:23:57.781Z,1018
2017-05-06T03:25:00.649Z,1017.9
2017-05-06T03:26:03.316Z,1018
2017-05-06T03:27:05.682Z,1017.9
2017-05-06T03:28:08.550Z,1017.9
2017-05-06T03:29:11.286Z,1017.9
2017-05-06T03:30:13.655Z,1017.9
2017-05-06T03:31:16.773Z,1017.9
2017-05-06T03:32:19.136Z,1017.9
2017-05-06T03:33:22.005Z,1017.9
2017-05-06T03:34:24.374Z,1017.9
2017-05-06T03:35:27.246Z,1017.9
2017-05-06T03:36:30.284Z,1017.9
2017-05-06T03:37:32.655Z,1017.9
2017-05-06T03:38:35.020Z,1017.9
2017-05-06T03:39:37.888Z,1017.8
2017-05-06T03:40:40.247Z,1017.9
2017-05-06T03:41:43.377Z,1017.8
2017-05-06T03:42:45.743Z,1017.9
2017-05-06T03:43:48.617Z,1017.9
2017-05-06T03:44:50.986Z,1017.8
2017-05-06T03:45:53.854Z,1017.9
2017-05-06T03:46:56.471Z,1017.9
2017-05-06T03:47:58.840Z,1017.9
2017-05-06T03:49:01.579Z,1017.9
2017-05-06T03:50:04.451Z,1017.9
2017-05-06T03:51:06.827Z,1017.9
2017-05-06T03:52:10.180Z,1017.9
2017-05-06T03:53:12.548Z,1017.9
2017-05-06T03:54:15.284Z,1017.9
2017-05-06T03:55:17.512Z,1017.8
2017-05-06T03:56:20.386Z,1017.9
2017-05-06T03:57:23.506Z,1017.8
2017-05-06T03:58:25.874Z,1017.9
2017-05-06T03:59:28.242Z,1017.8
2017-05-06T04:00:31.108Z,1017.8
2017-05-06T04:01:33.476Z,1017.8
2017-05-06T04:02:36.644Z,1017.8
2017-05-06T04:03:39.008Z,1017.8
2017-05-06T04:04:41.882Z,1017.8
2017-05-06T04:05:44.244Z,1017.8
2017-05-06T04:06:47.111Z,1017.8
2017-05-06T04:07:49.780Z,1017.8
2017-05-06T04:08:52.380Z,1017.8
2017-05-06T04:09:54.743Z,1017.8
2017-05-06T04:10:57.669Z,1017.9
2017-05-06T04:12:00.030Z,1017.8
2017-05-06T04:13:03.199Z,1017.8
2017-05-06T04:14:05.553Z,1017.8
2017-05-06T04:15:08.405Z,1017.8
2017-05-06T04:17:13.652Z,1017.8
2017-05-06T04:19:19.010Z,1017.8
2017-05-06T04:21:24.264Z,1017.8
2017-05-06T04:22:26.604Z,1017.8
2017-05-06T04:23:29.444Z,1017.8
2017-05-06T04:24:32.538Z,1017.8
2017-05-06T04:25:34.876Z,1017.8
2017-05-06T04:26:37.215Z,1017.8
2017-05-06T04:27:40.052Z,1017.8
2017-05-06T04:28:42.898Z,1017.8
2017-05-06T04:29:45.539Z,1017.8
2017-05-06T04:30:47.879Z,1017.7
2017-05-06T04:31:50.718Z,1017.7
2017-05-06T04:32:53.556Z,1017.7
2017-05-06T04:33:55.926Z,1017.7
2017-05-06T04:34:58.890Z,1017.8
2017-05-06T04:37:04.014Z,1017.7
2017-05-06T04:38:06.852Z,1017.8
2017-05-06T04:39:09.182Z,1017.7
2017-05-06T04:40:12.140Z,1017.7
2017-05-06T04:42:17.111Z,1017.7
2017-05-06T04:43:19.815Z,1017.7
2017-05-06T04:44:22.528Z,1017.8
2017-05-06T04:45:25.623Z,1017.8
2017-05-06T04:46:27.962Z,1017.7
2017-05-06T04:47:30.800Z,1017.7
2017-05-06T04:48:33.139Z,1017.7
2017-05-06T04:49:35.981Z,1017.8
2017-05-06T04:50:39.120Z,1017.7
2017-05-06T04:51:41.454Z,1017.7
2017-05-06T04:52:43.784Z,1017.7
2017-05-06T04:53:46.625Z,1017.7
2017-05-06T04:54:49.469Z,1017.6
2017-05-06T04:55:52.063Z,1017.6
2017-05-06T04:56:54.400Z,1017.6
2017-05-06T04:57:57.241Z,1017.6
2017-05-06T04:59:00.079Z,1017.5
2017-05-06T05:00:02.414Z,1017.5
2017-05-06T05:01:05.366Z,1017.5
2017-05-06T05:02:07.696Z,1017.5
2017-05-06T05:03:10.537Z,1017.5
2017-05-06T05:05:15.777Z,1017.5
2017-05-06T05:06:18.879Z,1017.5
2017-05-06T05:07:21.219Z,1017.5
2017-05-06T05:08:23.552Z,1017.5
2017-05-06T05:09:26.262Z,1017.5
2017-05-06T05:10:29.105Z,1017.5
2017-05-06T05:11:32.111Z,1017.5
2017-05-06T05:12:34.447Z,1017.5
2017-05-06T05:13:37.283Z,1017.5
2017-05-06T05:14:39.621Z,1017.5
2017-05-06T05:15:42.453Z,1017.5
2017-05-06T05:16:45.413Z,1017.6
2017-05-06T05:17:47.744Z,1017.5
2017-05-06T05:18:50.125Z,1017.5
2017-05-06T05:19:52.971Z,1017.5
2017-05-06T05:20:55.815Z,1017.5
2017-05-06T05:21:58.403Z,1017.5
2017-05-06T05:23:00.735Z,1017.5
2017-05-06T05:24:03.600Z,1017.5
2017-05-06T05:25:06.439Z,1017.5
2017-05-06T05:26:08.774Z,1017.5
2017-05-06T05:27:11.861Z,1017.5
2017-05-06T05:28:14.196Z,1017.4
2017-05-06T05:29:17.034Z,1017.5
2017-05-06T05:30:19.383Z,1017.5
2017-05-06T05:31:22.223Z,1017.4
2017-05-06T05:32:25.176Z,1017.5
2017-05-06T05:33:27.375Z,1017.5
2017-05-06T05:34:30.221Z,1017.5
2017-05-06T05:35:33.063Z,1017.4
2017-05-06T05:36:35.402Z,1017.5
2017-05-06T05:37:38.489Z,1017.4
2017-05-06T05:38:40.825Z,1017.4
2017-05-06T05:39:43.668Z,1017.4
2017-05-06T05:40:46.001Z,1017.4
2017-05-06T05:41:48.842Z,1017.4
2017-05-06T05:42:51.937Z,1017.4
2017-05-06T05:43:54.269Z,1017.4
2017-05-06T05:44:56.603Z,1017.4
2017-05-06T05:45:59.440Z,1017.4
2017-05-06T05:47:02.280Z,1017.4
2017-05-06T05:48:04.923Z,1017.4
2017-05-06T05:50:09.901Z,1017.4
2017-05-06T05:51:12.742Z,1017.3
2017-05-06T05:52:15.579Z,1017.3
2017-05-06T05:53:18.172Z,1017.4
2017-05-06T05:54:20.503Z,1017.3
2017-05-06T05:55:23.335Z,1017.3
2017-05-06T05:56:26.064Z,1017.3
2017-05-06T05:57:28.904Z,1017.3
2017-05-06T05:58:31.547Z,1017.3
2017-05-06T05:59:33.880Z,1017.3
2017-05-06T06:00:36.594Z,1017.3
2017-05-06T06:01:39.429Z,1017.3
2017-05-06T06:02:42.269Z,1017.3
2017-05-06T06:03:44.859Z,1017.3
2017-05-06T06:04:47.194Z,1017.3
2017-05-06T06:05:50.035Z,1017.3
2017-05-06T06:06:52.605Z,1017.3
2017-05-06T06:07:55.453Z,1017.3
2017-05-06T06:08:58.044Z,1017.3
2017-05-06T06:10:00.885Z,1017.3
2017-05-06T06:11:03.218Z,1017.3
2017-05-06T06:12:05.922Z,1017.3
2017-05-06T06:13:08.662Z,1017.3
2017-05-06T06:14:11.804Z,1017.4
2017-05-06T06:15:14.141Z,1017.4
2017-05-06T06:16:16.349Z,1017.4
2017-05-06T06:17:19.195Z,1017.4
2017-05-06T06:18:22.043Z,1017.3
2017-05-06T06:19:24.999Z,1017.3
2017-05-06T06:20:27.342Z,1017.4
2017-05-06T06:21:29.678Z,1017.4
2017-05-06T06:22:32.516Z,1017.3
2017-05-06T06:23:35.352Z,1017.3
2017-05-06T06:24:37.953Z,1017.3
2017-05-06T06:25:40.288Z,1017.4
2017-05-06T06:26:43.369Z,1017.3
2017-05-06T06:27:45.703Z,1017.4
2017-05-06T06:28:48.536Z,1017.3
2017-05-06T06:29:51.623Z,1017.3
2017-05-06T06:30:53.959Z,1017.3
2017-05-06T06:31:56.292Z,1017.3
2017-05-06T06:32:59.135Z,1017.3
2017-05-06T06:34:01.968Z,1017.3
2017-05-06T06:35:04.608Z,1017.3
2017-05-06T06:36:06.944Z,1017.3
2017-05-06T06:37:09.780Z,1017.3
2017-05-06T06:38:12.620Z,1017.3
2017-05-06T06:39:15.192Z,1017.3
2017-05-06T06:40:18.284Z,1017.3
2017-05-06T06:41:20.620Z,1017.2
2017-05-06T06:42:22.952Z,1017.3
2017-05-06T06:43:25.786Z,1017.3
2017-05-06T06:44:28.621Z,1017.2
2017-05-06T06:45:31.631Z,1017.3
2017-05-06T06:46:33.960Z,1017.3
2017-05-06T06:47:36.297Z,1017.3
2017-05-06T06:48:39.134Z,1017.2
2017-05-06T06:49:41.975Z,1017.2
2017-05-06T06:50:44.560Z,1017.2
2017-05-06T06:51:46.895Z,1017.2
2017-05-06T06:52:49.739Z,1017.2
2017-05-06T06:53:52.579Z,1017.2
2017-05-06T06:54:54.911Z,1017.3
2017-05-06T06:55:58.004Z,1017.2
2017-05-06T06:57:00.335Z,1017.2
2017-05-06T06:58:03.171Z,1017.2
2017-05-06T06:59:05.504Z,1017.2
2017-05-06T07:01:11.514Z,1017.2
2017-05-06T07:02:13.723Z,1017.2
2017-05-06T07:03:16.431Z,1017.2
2017-05-06T07:04:19.271Z,1017.2
2017-05-06T07:05:21.605Z,1017.2
2017-05-06T07:06:24.751Z,1017.2
2017-05-06T07:07:27.089Z,1017.2
2017-05-06T07:08:29.794Z,1017.2
2017-05-06T07:09:32.503Z,1017.2
2017-05-06T07:10:34.839Z,1017.2
2017-05-06T07:11:37.933Z,1017.2
2017-05-06T07:12:40.282Z,1017.1
2017-05-06T07:13:43.126Z,1017.1
2017-05-06T07:14:45.476Z,1017.1
2017-05-06T07:15:48.317Z,1017.1
2017-05-06T07:16:51.410Z,1017.1
2017-05-06T07:17:53.749Z,1017.2
2017-05-06T07:18:56.086Z,1017.1
2017-05-06T07:19:58.930Z,1017.1
2017-05-06T07:21:01.782Z,1017.1
2017-05-06T07:22:04.380Z,1017.1
2017-05-06T07:23:06.713Z,1017
2017-05-06T07:24:09.607Z,1017
2017-05-06T07:25:12.446Z,1017
2017-05-06T07:26:15.021Z,1017
2017-05-06T07:27:17.614Z,1017
2017-05-06T07:28:20.451Z,1017
2017-05-06T07:29:22.786Z,1017
2017-05-06T07:30:25.359Z,1017
2017-05-06T07:31:28.197Z,1017
2017-05-06T07:32:31.288Z,1017
2017-05-06T07:33:33.626Z,1016.9
2017-05-06T07:34:36.459Z,1017
2017-05-06T07:35:38.797Z,1016.9
2017-05-06T07:36:41.637Z,1016.9
2017-05-06T07:37:44.727Z,1017
2017-05-06T07:38:47.132Z,1017
2017-05-06T07:39:49.469Z,1016.9
2017-05-06T07:40:52.305Z,1016.9
2017-05-06T07:41:54.683Z,1016.9
2017-05-06T07:42:57.783Z,1016.9
2017-05-06T07:44:00.210Z,1016.9
2017-05-06T07:45:03.047Z,1016.8
2017-05-06T07:46:05.758Z,1016.9
2017-05-06T07:47:08.463Z,1016.8
2017-05-06T07:48:11.050Z,1016.9
2017-05-06T07:49:13.390Z,1016.8
2017-05-06T07:50:16.225Z,1016.8
2017-05-06T07:51:19.063Z,1016.9
2017-05-06T07:52:21.396Z,1016.9
2017-05-06T07:53:24.570Z,1016.9
2017-05-06T07:54:26.910Z,1016.9
2017-05-06T07:55:29.750Z,1016.8
2017-05-06T07:56:32.120Z,1016.8
2017-05-06T07:57:34.967Z,1016.8
2017-05-06T07:58:38.060Z,1016.8
2017-05-06T07:59:40.408Z,1016.8
2017-05-06T08:00:42.788Z,1016.8
2017-05-06T08:01:45.629Z,1016.8
2017-05-06T08:02:48.465Z,1016.8
2017-05-06T08:03:51.421Z,1016.8
2017-05-06T08:04:53.625Z,1016.8
2017-05-06T08:05:56.470Z,1016.8
2017-05-06T08:06:58.808Z,1016.8
2017-05-06T08:08:01.564Z,1016.8
2017-05-06T08:09:04.665Z,1016.8
2017-05-06T08:10:07.007Z,1016.8
2017-05-06T08:11:09.847Z,1016.8
2017-05-06T08:12:12.179Z,1016.8
2017-05-06T08:13:14.746Z,1016.7
2017-05-06T08:14:17.751Z,1016.8
2017-05-06T08:15:20.104Z,1016.7
2017-05-06T08:16:22.942Z,1016.7
2017-05-06T08:17:25.648Z,1016.7
2017-05-06T08:18:28.529Z,1016.7
2017-05-06T08:20:33.757Z,1016.7
2017-05-06T08:21:36.599Z,1016.7
2017-05-06T08:22:39.169Z,1016.7
2017-05-06T08:23:41.516Z,1016.7
2017-05-06T08:24:44.359Z,1016.7
2017-05-06T08:25:47.451Z,1016.6
2017-05-06T08:26:49.801Z,1016.7
2017-05-06T08:27:52.643Z,1016.6
2017-05-06T08:28:54.852Z,1016.6
2017-05-06T08:29:57.561Z,1016.6
2017-05-06T08:31:00.699Z,1016.6
2017-05-06T08:32:03.033Z,1016.6
2017-05-06T08:33:05.873Z,1016.6
2017-05-06T08:34:08.210Z,1016.5
2017-05-06T08:35:10.916Z,1016.5
2017-05-06T08:36:14.005Z,1016.5
2017-05-06T08:37:16.208Z,1016.5
2017-05-06T08:39:22.000Z,1016.4
2017-05-06T08:40:24.333Z,1016.4
2017-05-06T08:41:27.423Z,1016.4
2017-05-06T08:42:29.764Z,1016.4
2017-05-06T08:43:32.604Z,1016.4
2017-05-06T08:44:34.984Z,1016.4
2017-05-06T08:45:38.056Z,1016.4
2017-05-06T08:46:40.696Z,1016.4
2017-05-06T08:47:43.035Z,1016.4
2017-05-06T08:48:45.876Z,1016.3
2017-05-06T08:49:48.579Z,1016.4
2017-05-06T08:50:51.414Z,1016.4
2017-05-06T08:51:54.001Z,1016.4
2017-05-06T08:52:56.339Z,1016.3
2017-05-06T08:53:59.179Z,1016.3
2017-05-06T08:55:02.014Z,1016.3
2017-05-06T08:56:04.717Z,1016.3
2017-05-06T08:57:07.533Z,1016.3
2017-05-06T08:58:09.735Z,1016.3
2017-05-06T08:59:12.616Z,1016.3
2017-05-06T09:01:17.865Z,1016.3
2017-05-06T09:02:21.007Z,1016.3
2017-05-06T09:03:23.339Z,1016.3
2017-05-06T09:04:26.091Z,1016.2
2017-05-06T09:05:28.425Z,1016.3
2017-05-06T09:06:31.272Z,1016.3
2017-05-06T09:07:34.233Z,1016.2
2017-05-06T09:08:36.569Z,1016.2
2017-05-06T09:09:39.278Z,1016.3
2017-05-06T09:10:41.986Z,1016.2
2017-05-06T09:11:44.698Z,1016.2
2017-05-06T09:12:47.840Z,1016.2
2017-05-06T09:13:50.187Z,1016.2
2017-05-06T09:14:52.522Z,1016.2
2017-05-06T09:15:55.362Z,1016
2017-05-06T09:18:00.862Z,1016
2017-05-06T09:19:03.198Z,1016
2017-05-06T09:20:06.034Z,1016
2017-05-06T09:21:08.871Z,1016.2
2017-05-06T09:22:11.215Z,1016
2017-05-06T09:23:14.365Z,1016
2017-05-06T09:24:16.698Z,1016
2017-05-06T09:25:19.422Z,1016
2017-05-06T09:26:22.154Z,1016
2017-05-06T09:27:24.995Z,1016
2017-05-06T09:28:27.634Z,1016
2017-05-06T09:29:29.981Z,1016
2017-05-06T09:30:32.830Z,1015.9
2017-05-06T09:31:35.396Z,1015.9
2017-05-06T09:32:38.115Z,1015.9
2017-05-06T09:33:41.208Z,1015.9
2017-05-06T09:34:43.409Z,1015.9
2017-05-06T09:35:46.251Z,1015.9
2017-05-06T09:36:49.094Z,1015.9
2017-05-06T09:37:51.431Z,1015.9
2017-05-06T09:38:54.520Z,1015.9
2017-05-06T09:39:56.782Z,1015.9
2017-05-06T09:40:59.622Z,1015.9
2017-05-06T09:42:02.460Z,1015.9
2017-05-06T09:43:04.795Z,1015.9
2017-05-06T09:44:07.886Z,1015.9
2017-05-06T09:45:10.217Z,1015.9
2017-05-06T09:46:13.272Z,1015.9
2017-05-06T09:47:15.977Z,1015.8
2017-05-06T09:48:18.178Z,1015.8
2017-05-06T09:49:21.266Z,1015.8
2017-05-06T09:50:23.600Z,1015.8
2017-05-06T09:51:26.534Z,1015.8
2017-05-06T09:52:29.371Z,1015.7
2017-05-06T09:53:31.703Z,1015.8
2017-05-06T09:54:34.655Z,1015.7
2017-05-06T09:55:37.358Z,1015.8
2017-05-06T09:56:39.689Z,1015.7
2017-05-06T09:57:42.529Z,1015.7
2017-05-06T09:58:45.369Z,1015.7
2017-05-06T09:59:48.374Z,1015.7
2017-05-06T10:00:50.711Z,1015.7
2017-05-06T10:01:53.426Z,1015.6
2017-05-06T10:02:55.764Z,1015.7
2017-05-06T10:03:58.603Z,1015.7
2017-05-06T10:05:01.744Z,1015.7
2017-05-06T10:06:04.083Z,1015.6
2017-05-06T10:07:06.928Z,1015.6
2017-05-06T10:08:09.262Z,1015.6
2017-05-06T10:09:11.963Z,1015.6
2017-05-06T10:10:15.107Z,1015.6
2017-05-06T10:11:17.447Z,1015.6
2017-05-06T10:12:20.292Z,1015.6
2017-05-06T10:13:22.623Z,1015.6
2017-05-06T10:14:25.521Z,1015.6
2017-05-06T10:15:28.476Z,1015.6
2017-05-06T10:16:30.853Z,1015.6
2017-05-06T10:18:36.099Z,1015.5
2017-05-06T10:19:38.804Z,1015.6
2017-05-06T10:20:41.895Z,1015.6
2017-05-06T10:21:44.234Z,1015.5
2017-05-06T10:22:47.079Z,1015.5
2017-05-06T10:23:49.414Z,1015.5
2017-05-06T10:24:52.251Z,1015.5
2017-05-06T10:25:55.346Z,1015.4
2017-05-06T10:26:57.697Z,1015.4
2017-05-06T10:28:00.543Z,1015.4
2017-05-06T10:29:02.880Z,1015.4
2017-05-06T10:30:05.716Z,1015.3
2017-05-06T10:31:08.808Z,1015.2
2017-05-06T10:32:11.146Z,1015.2
2017-05-06T10:33:13.848Z,1015.3
2017-05-06T10:34:16.686Z,1015.3
2017-05-06T10:35:19.024Z,1015.2
2017-05-06T10:36:22.111Z,1015.2
2017-05-06T10:37:24.447Z,1015.1
2017-05-06T10:38:27.289Z,1015.1
2017-05-06T10:39:30.127Z,1015.1
2017-05-06T10:40:32.467Z,1015.1
2017-05-06T10:41:35.614Z,1015
2017-05-06T10:43:40.859Z,1015.1
2017-05-06T10:44:43.563Z,1015.1
2017-05-06T10:45:45.901Z,1015
2017-05-06T10:46:49.225Z,1015
2017-05-06T10:48:53.965Z,1015
2017-05-06T10:49:56.849Z,1015
2017-05-06T10:50:59.552Z,1014.9
2017-05-06T10:52:02.644Z,1014.9
2017-05-06T10:53:04.983Z,1014.9
2017-05-06T10:54:07.823Z,1014.9
2017-05-06T10:55:10.168Z,1014.9
2017-05-06T10:56:13.005Z,1014.9
2017-05-06T10:57:15.825Z,1014.8
2017-05-06T10:58:18.409Z,1014.8
2017-05-06T10:59:21.252Z,1014.8
2017-05-06T11:00:24.087Z,1014.8
2017-05-06T11:01:26.792Z,1014.8
2017-05-06T11:02:29.750Z,1014.8
2017-05-06T11:03:31.956Z,1014.7
2017-05-06T11:04:34.793Z,1014.7
2017-05-06T11:05:37.130Z,1014.7
2017-05-06T11:06:39.835Z,1014.7
2017-05-06T11:07:42.974Z,1014.8
2017-05-06T11:08:45.308Z,1014.7
2017-05-06T11:09:48.149Z,1014.8
2017-05-06T11:10:51.043Z,1014.7
2017-05-06T11:11:53.377Z,1014.6
2017-05-06T11:12:56.519Z,1014.6
2017-05-06T11:13:58.857Z,1014.6
2017-05-06T11:15:01.693Z,1014.6
2017-05-06T11:16:04.400Z,1014.6
2017-05-06T11:17:07.102Z,1014.6
2017-05-06T11:18:09.929Z,1014.5
2017-05-06T11:19:12.265Z,1014.6
2017-05-06T11:20:14.966Z,1014.5
2017-05-06T11:21:17.804Z,1014.5
2017-05-06T11:22:20.643Z,1014.4
2017-05-06T11:23:23.781Z,1014.4
2017-05-06T11:24:25.981Z,1014.4
2017-05-06T11:25:28.818Z,1014.3
2017-05-06T11:26:31.654Z,1014.3
2017-05-06T11:27:34.362Z,1014.3
2017-05-06T11:28:36.878Z,1014.2
2017-05-06T11:29:39.711Z,1014.3
2017-05-06T11:30:42.092Z,1014.2
2017-05-06T11:31:44.930Z,1014.2
2017-05-06T11:32:47.769Z,1014.3
2017-05-06T11:33:50.427Z,1014.2
2017-05-06T11:34:53.263Z,1014.2
2017-05-06T11:36:58.368Z,1014.1
2017-05-06T11:38:01.068Z,1014.1
2017-05-06T11:39:04.157Z,1014.2
2017-05-06T11:40:06.490Z,1014
2017-05-06T11:41:09.191Z,1014.1
2017-05-06T11:42:12.030Z,1014
2017-05-06T11:43:14.738Z,1014
2017-05-06T11:44:17.825Z,1014
2017-05-06T11:45:20.024Z,1013.9
2017-05-06T11:46:22.868Z,1014
2017-05-06T11:47:25.708Z,1013.9
2017-05-06T11:48:28.282Z,1014
2017-05-06T11:49:31.422Z,1014
2017-05-06T11:50:33.761Z,1013.8
2017-05-06T11:51:36.598Z,1013.9
2017-05-06T11:52:38.939Z,1013.9
2017-05-06T11:53:41.774Z,1013.9
2017-05-06T11:54:44.918Z,1013.8
2017-05-06T11:55:47.254Z,1013.8
2017-05-06T11:56:50.091Z,1013.8
2017-05-06T11:57:52.958Z,1013.8
2017-05-06T11:58:55.292Z,1013.8
2017-05-06T11:59:58.438Z,1013.8
2017-05-06T12:01:01.143Z,1013.7
2017-05-06T12:02:03.508Z,1013.7
2017-05-06T12:03:06.230Z,1013.7
2017-05-06T12:04:09.068Z,1013.6
2017-05-06T12:05:12.075Z,1013.6
2017-05-06T12:06:14.412Z,1013.5
2017-05-06T12:07:17.252Z,1013.5
2017-05-06T12:08:20.086Z,1013.5
2017-05-06T12:10:25.451Z,1013.5
2017-05-06T12:11:28.154Z,1013.4
2017-05-06T12:13:33.769Z,1013.5
2017-05-06T12:14:36.476Z,1013.4
2017-05-06T12:15:39.061Z,1013.4
2017-05-06T12:16:41.899Z,1013.4
2017-05-06T12:17:44.235Z,1013.4
2017-05-06T12:18:46.945Z,1013.4
2017-05-06T12:19:49.782Z,1013.3
2017-05-06T12:20:52.743Z,1013.4
2017-05-06T12:21:55.078Z,1013.3
2017-05-06T12:22:57.913Z,1013.3
2017-05-06T12:24:00.756Z,1013.3
2017-05-06T12:25:03.593Z,1013.4
2017-05-06T12:26:06.548Z,1013.3
2017-05-06T12:27:08.880Z,1013.3
2017-05-06T12:28:11.719Z,1013.3
2017-05-06T12:29:14.427Z,1013.3
2017-05-06T12:30:17.267Z,1013.3
2017-05-06T12:31:20.360Z,1013.2
2017-05-06T12:32:22.693Z,1013.2
2017-05-06T12:33:25.531Z,1013.3
2017-05-06T12:34:27.867Z,1013.2
2017-05-06T12:35:30.711Z,1013.2
2017-05-06T12:36:33.850Z,1013.1
2017-05-06T12:38:39.096Z,1013.2
2017-05-06T12:40:44.340Z,1013.1
2017-05-06T12:41:47.434Z,1013.1
2017-05-06T12:42:50.134Z,1013.1
2017-05-06T12:43:52.471Z,1013.1
2017-05-06T12:44:55.310Z,1013
2017-05-06T12:45:58.170Z,1013
2017-05-06T12:47:01.180Z,1013
2017-05-06T12:48:03.515Z,1012.9
2017-05-06T12:49:06.221Z,1012.9
2017-05-06T12:50:08.927Z,1012.9
2017-05-06T12:51:11.767Z,1012.8
2017-05-06T12:53:17.265Z,1012.9
2017-05-06T12:54:19.977Z,1012.9
2017-05-06T12:55:22.823Z,1012.9
2017-05-06T12:56:25.228Z,1012.9
2017-05-06T12:57:28.067Z,1012.8
2017-05-06T12:58:31.163Z,1012.8
2017-05-06T12:59:33.497Z,1012.7
2017-05-06T13:00:36.330Z,1012.9
2017-05-06T13:01:39.168Z,1012.8
2017-05-06T13:02:42.010Z,1012.8
2017-05-06T13:03:44.600Z,1012.9
2017-05-06T13:04:47.314Z,1012.8
2017-05-06T13:05:50.157Z,1012.8
2017-05-06T13:06:52.996Z,1012.7
2017-05-06T13:07:55.701Z,1012.8
2017-05-06T13:08:58.289Z,1012.7
2017-05-06T13:10:01.126Z,1012.8
2017-05-06T13:11:03.963Z,1012.9
2017-05-06T13:12:06.666Z,1012.8
2017-05-06T13:13:09.240Z,1012.8
2017-05-06T13:14:12.380Z,1012.8
2017-05-06T13:16:17.665Z,1012.9
2017-05-06T13:17:19.998Z,1012.7
2017-05-06T13:18:22.841Z,1012.7
2017-05-06T13:19:25.926Z,1012.7
2017-05-06T13:20:28.262Z,1012.7
2017-05-06T13:21:31.101Z,1012.7
2017-05-06T13:22:33.964Z,1012.7
2017-05-06T13:23:36.806Z,1012.7
2017-05-06T13:24:39.453Z,1012.7
2017-05-06T13:25:42.296Z,1012.7
2017-05-06T13:26:44.868Z,1012.7
2017-05-06T13:27:47.710Z,1012.6
2017-05-06T13:28:50.550Z,1012.6
2017-05-06T13:29:53.146Z,1012.6
2017-05-06T13:30:55.987Z,1012.6
2017-05-06T13:31:58.322Z,1012.5
2017-05-06T13:33:01.388Z,1012.6
2017-05-06T13:34:04.236Z,1012.6
2017-05-06T13:35:06.872Z,1012.5
2017-05-06T13:36:09.715Z,1012.5